createdAt,value
2023-06-29T00:01:26.476Z,19.02
2023-06-29T00:03:54.331Z,18.69
2023-06-29T00:06:22.135Z,18.85
2023-06-29T00:08:50.350Z,18.96
2023-06-29T00:11:18.090Z,18.81
2023-06-29T00:13:45.957Z,18.79
2023-06-29T00:16:13.739Z,18.54
2023-06-29T00:18:41.541Z,18.58
2023-06-29T00:21:09.404Z,18.58
2023-06-29T00:23:37.263Z,18.56
2023-06-29T00:26:06.394Z,18.50
2023-06-29T00:28:34.334Z,18.55
2023-06-29T00:31:02.215Z,18.53
2023-06-29T00:33:31.049Z,18.43
2023-06-29T00:35:58.853Z,18.37
2023-06-29T00:38:26.644Z,18.31
2023-06-29T00:40:54.437Z,18.17
2023-06-29T00:43:22.165Z,18.05
2023-06-29T00:45:50.035Z,17.94
2023-06-29T00:48:17.918Z,17.91
2023-06-29T00:50:45.836Z,17.99
2023-06-29T00:53:16.114Z,17.94
2023-06-29T00:55:45.934Z,17.83
2023-06-29T00:58:13.849Z,17.10
2023-06-29T01:00:41.625Z,17.55
2023-06-29T01:03:12.575Z,17.55
2023-06-29T01:05:43.358Z,17.53
2023-06-29T01:08:40.044Z,17.57
2023-06-29T01:11:10.987Z,17.52
2023-06-29T01:13:41.912Z,17.51
2023-06-29T01:16:10.873Z,17.43
2023-06-29T01:18:40.823Z,17.46
2023-06-29T01:21:11.064Z,17.45
2023-06-29T01:23:40.624Z,17.42
2023-06-29T01:26:11.520Z,17.36
2023-06-29T01:28:40.113Z,17.34
2023-06-29T01:31:12.788Z,17.33
2023-06-29T01:33:40.809Z,17.32
2023-06-29T01:36:29.820Z,17.24
2023-06-29T01:39:05.040Z,17.25
2023-06-29T01:41:43.384Z,17.20
2023-06-29T01:44:17.088Z,17.12
2023-06-29T01:46:46.488Z,17.15
2023-06-29T01:49:14.704Z,17.09
2023-06-29T01:51:42.538Z,17.04
2023-06-29T01:54:10.476Z,17.03
2023-06-29T01:56:38.416Z,17.03
2023-06-29T01:59:06.253Z,17.01
2023-06-29T02:01:34.219Z,17.00
2023-06-29T02:04:01.994Z,16.95
2023-06-29T02:06:29.736Z,16.92
2023-06-29T02:08:57.593Z,16.85
2023-06-29T02:11:25.462Z,16.88
2023-06-29T02:13:53.226Z,16.84
2023-06-29T02:16:21.319Z,16.71
2023-06-29T02:18:49.072Z,16.76
2023-06-29T02:21:16.849Z,16.78
2023-06-29T02:23:44.625Z,16.79
2023-06-29T02:26:13.001Z,16.82
2023-06-29T02:28:40.845Z,16.92
2023-06-29T02:31:08.681Z,16.97
2023-06-29T02:33:36.741Z,17.03
2023-06-29T02:36:05.507Z,17.10
2023-06-29T02:38:33.285Z,17.10
2023-06-29T02:41:01.090Z,17.17
2023-06-29T02:43:28.831Z,17.24
2023-06-29T02:45:56.784Z,17.33
2023-06-29T02:48:27.805Z,17.33
2023-06-29T02:50:56.342Z,17.13
2023-06-29T02:53:24.326Z,17.34
2023-06-29T02:55:52.109Z,17.52
2023-06-29T02:58:19.936Z,17.65
2023-06-29T03:00:49.820Z,17.76
2023-06-29T03:03:17.749Z,17.85
2023-06-29T03:05:45.925Z,17.96
2023-06-29T03:08:13.849Z,18.04
2023-06-29T03:10:41.744Z,18.16
2023-06-29T03:13:09.576Z,18.19
2023-06-29T03:15:37.292Z,18.18
2023-06-29T03:18:05.110Z,18.28
2023-06-29T03:20:32.887Z,18.33
2023-06-29T03:23:00.646Z,18.48
2023-06-29T03:25:29.123Z,18.56
2023-06-29T03:27:57.332Z,18.49
2023-06-29T03:30:25.190Z,18.51
2023-06-29T03:32:54.300Z,18.53
2023-06-29T03:35:22.288Z,18.63
2023-06-29T03:37:50.011Z,18.63
2023-06-29T03:40:20.360Z,18.77
2023-06-29T03:42:48.205Z,18.81
2023-06-29T03:45:16.213Z,18.87
2023-06-29T03:47:43.996Z,18.87
2023-06-29T03:50:14.827Z,18.83
2023-06-29T03:52:45.805Z,19.02
2023-06-29T03:55:16.701Z,19.07
2023-06-29T03:57:44.529Z,18.85
2023-06-29T04:00:16.291Z,19.00
2023-06-29T04:02:46.557Z,18.85
2023-06-29T04:05:14.617Z,18.85
2023-06-29T04:07:45.193Z,19.08
2023-06-29T04:10:12.967Z,19.16
2023-06-29T04:12:40.724Z,18.37
2023-06-29T04:15:10.734Z,18.67
2023-06-29T04:17:41.801Z,19.17
2023-06-29T04:20:13.031Z,19.02
2023-06-29T04:22:40.750Z,19.41
2023-06-29T04:25:08.506Z,19.46
2023-06-29T04:27:36.442Z,19.65
2023-06-29T04:30:09.847Z,19.30
2023-06-29T04:32:38.250Z,19.67
2023-06-29T04:35:07.167Z,19.83
2023-06-29T04:37:42.259Z,19.23
2023-06-29T04:40:13.937Z,19.56
2023-06-29T04:42:50.799Z,19.74
2023-06-29T04:45:19.281Z,19.08
2023-06-29T04:47:51.152Z,19.00
2023-06-29T04:50:27.758Z,19.21
2023-06-29T04:52:56.829Z,19.38
2023-06-29T04:55:24.638Z,19.76
2023-06-29T04:57:53.255Z,20.08
2023-06-29T05:00:21.376Z,19.93
2023-06-29T05:02:51.218Z,20.13
2023-06-29T05:05:18.995Z,20.43
2023-06-29T05:07:46.770Z,20.27
2023-06-29T05:10:14.636Z,20.48
2023-06-29T05:12:42.368Z,20.61
2023-06-29T05:15:10.592Z,20.86
2023-06-29T05:17:38.859Z,20.97
2023-06-29T05:20:07.544Z,20.89
2023-06-29T05:22:35.340Z,21.23
2023-06-29T05:25:03.672Z,21.22
2023-06-29T05:27:31.416Z,21.40
2023-06-29T05:29:59.395Z,21.56
2023-06-29T05:32:27.892Z,21.71
2023-06-29T05:34:55.687Z,21.96
2023-06-29T05:37:23.885Z,22.08
2023-06-29T05:39:51.754Z,22.09
2023-06-29T05:42:19.487Z,21.96
2023-06-29T05:44:47.153Z,22.11
2023-06-29T05:47:14.964Z,21.94
2023-06-29T05:49:43.781Z,22.06
2023-06-29T05:52:11.571Z,22.04
2023-06-29T05:54:39.368Z,21.91
2023-06-29T05:57:07.264Z,21.90
2023-06-29T05:59:34.958Z,21.86
2023-06-29T06:02:03.528Z,21.99
2023-06-29T06:04:31.496Z,21.87
2023-06-29T06:06:59.700Z,22.03
2023-06-29T06:09:27.366Z,22.05
2023-06-29T06:11:56.048Z,22.08
2023-06-29T06:14:23.770Z,22.25
2023-06-29T06:16:51.550Z,22.30
2023-06-29T06:19:19.233Z,22.58
2023-06-29T06:21:47.019Z,22.10
2023-06-29T06:24:14.712Z,22.40
2023-06-29T06:26:42.391Z,22.37
2023-06-29T06:29:10.140Z,22.44
2023-06-29T06:31:37.921Z,22.84
2023-06-29T06:34:05.692Z,22.78
2023-06-29T06:36:34.141Z,23.14
2023-06-29T06:39:01.814Z,23.18
2023-06-29T06:41:29.852Z,23.42
2023-06-29T06:43:58.328Z,23.51
2023-06-29T06:46:26.366Z,23.31
2023-06-29T06:48:54.104Z,23.32
2023-06-29T06:51:22.693Z,24.03
2023-06-29T06:53:50.381Z,24.11
2023-06-29T06:56:18.418Z,24.40
2023-06-29T06:58:46.149Z,24.65
2023-06-29T07:01:14.836Z,24.39
2023-06-29T07:03:42.605Z,25.00
2023-06-29T07:06:10.393Z,25.03
2023-06-29T07:08:38.197Z,25.09
2023-06-29T07:11:07.346Z,25.81
2023-06-29T07:13:35.043Z,25.51
2023-06-29T07:16:03.029Z,25.74
2023-06-29T07:18:31.981Z,25.97
2023-06-29T07:26:02.238Z,25.74
2023-06-29T07:28:29.959Z,25.90
2023-06-29T07:30:57.806Z,25.57
2023-06-29T07:33:25.820Z,25.80
2023-06-29T07:35:53.526Z,26.09
2023-06-29T07:38:21.342Z,26.39
2023-06-29T07:40:50.203Z,26.78
2023-06-29T07:43:18.236Z,27.14
2023-06-29T07:45:46.301Z,27.63
2023-06-29T07:48:14.418Z,27.19
2023-06-29T07:50:43.171Z,27.28
2023-06-29T07:53:10.945Z,27.46
2023-06-29T07:55:38.676Z,27.43
2023-06-29T08:00:37.051Z,27.30
2023-06-29T08:03:05.692Z,27.50
2023-06-29T08:08:04.810Z,27.69
2023-06-29T08:10:32.742Z,27.63
2023-06-29T08:13:00.700Z,28.06
2023-06-29T08:15:28.476Z,27.77
2023-06-29T08:17:56.550Z,27.47
2023-06-29T08:20:24.311Z,27.03
2023-06-29T08:22:52.316Z,26.79
2023-06-29T08:25:22.384Z,24.44
2023-06-29T08:27:51.090Z,23.84
2023-06-29T08:30:19.078Z,22.67
2023-06-29T08:32:50.338Z,22.77
2023-06-29T08:35:18.183Z,24.26
2023-06-29T08:37:45.965Z,25.33
2023-06-29T08:40:13.958Z,25.58
2023-06-29T08:42:41.816Z,26.15
2023-06-29T08:45:10.910Z,26.22
2023-06-29T08:47:40.052Z,26.01
2023-06-29T08:50:11.198Z,25.96
2023-06-29T08:52:40.246Z,26.43
2023-06-29T08:55:09.004Z,26.30
2023-06-29T08:57:37.530Z,26.80
2023-06-29T09:00:06.396Z,26.88
2023-06-29T09:02:35.137Z,26.91
2023-06-29T09:05:04.808Z,27.33
2023-06-29T09:07:35.132Z,26.88
2023-06-29T09:10:05.603Z,27.51
2023-06-29T09:12:34.316Z,27.59
2023-06-29T09:15:02.385Z,27.45
2023-06-29T09:17:34.994Z,27.89
2023-06-29T09:20:08.781Z,27.52
2023-06-29T09:22:40.333Z,27.59
2023-06-29T09:27:41.186Z,28.04
2023-06-29T09:30:16.269Z,28.32
2023-06-29T09:32:44.472Z,27.74
2023-06-29T09:35:12.719Z,26.71
2023-06-29T09:37:41.605Z,26.70
2023-06-29T09:40:12.638Z,25.95
2023-06-29T09:42:42.004Z,24.82
2023-06-29T09:45:12.652Z,23.85
2023-06-29T09:50:25.494Z,26.16
2023-06-29T09:52:55.616Z,27.46
2023-06-29T09:55:31.430Z,27.23
2023-06-29T09:57:59.851Z,28.01
2023-06-29T10:00:29.026Z,28.86
2023-06-29T10:02:57.173Z,29.54
2023-06-29T10:05:25.158Z,29.83
2023-06-29T10:07:54.350Z,30.13
2023-06-29T10:10:27.243Z,29.91
2023-06-29T10:12:57.008Z,29.53
2023-06-29T10:15:27.698Z,29.64
2023-06-29T10:18:10.701Z,29.61
2023-06-29T10:20:45.289Z,29.22
2023-06-29T10:23:17.665Z,30.07
2023-06-29T10:25:51.072Z,30.01
2023-06-29T10:28:20.333Z,30.21
2023-06-29T10:30:51.951Z,29.92
2023-06-29T10:33:24.088Z,30.22
2023-06-29T10:35:56.444Z,29.86
2023-06-29T10:38:33.467Z,30.52
2023-06-29T10:41:02.436Z,31.01
2023-06-29T10:43:59.833Z,31.32
2023-06-29T10:46:50.734Z,31.23
2023-06-29T10:49:27.034Z,30.71
2023-06-29T10:52:05.515Z,30.89
2023-06-29T10:54:34.234Z,31.01
2023-06-29T10:57:08.719Z,31.15
2023-06-29T10:59:38.431Z,31.17
2023-06-29T11:02:08.050Z,31.33
2023-06-29T11:04:36.266Z,31.12
2023-06-29T11:07:10.359Z,31.34
2023-06-29T11:09:38.313Z,29.94
2023-06-29T11:12:06.636Z,30.94
2023-06-29T11:14:39.384Z,29.16
2023-06-29T11:17:09.332Z,29.63
2023-06-29T11:19:43.243Z,28.62
2023-06-29T11:22:11.001Z,29.05
2023-06-29T11:24:38.703Z,29.94
2023-06-29T11:27:07.125Z,30.79
2023-06-29T11:29:35.070Z,30.04
2023-06-29T11:32:04.051Z,30.93
2023-06-29T11:34:31.888Z,31.59
2023-06-29T11:37:14.910Z,31.25
2023-06-29T11:39:50.085Z,31.75
2023-06-29T11:42:23.077Z,31.84
2023-06-29T11:45:13.238Z,30.79
2023-06-29T11:47:43.090Z,30.89
2023-06-29T11:50:12.126Z,30.58
2023-06-29T11:52:41.948Z,30.77
2023-06-29T11:55:14.169Z,29.36
2023-06-29T11:57:44.866Z,27.81
2023-06-29T12:00:13.281Z,28.91
2023-06-29T12:02:45.298Z,29.45
2023-06-29T12:05:13.229Z,28.71
2023-06-29T12:07:42.778Z,28.84
2023-06-29T12:10:19.873Z,28.12
2023-06-29T12:12:56.673Z,28.22
2023-06-29T12:15:30.870Z,28.49
2023-06-29T12:18:13.519Z,29.05
2023-06-29T12:20:44.755Z,29.26
2023-06-29T12:23:15.570Z,29.09
2023-06-29T12:25:45.624Z,30.15
2023-06-29T12:28:14.907Z,30.47
2023-06-29T12:30:43.983Z,29.08
2023-06-29T12:33:14.229Z,29.13
2023-06-29T12:35:43.568Z,28.99
2023-06-29T12:38:12.579Z,27.32
2023-06-29T12:40:40.776Z,27.07
2023-06-29T12:43:08.494Z,28.41
2023-06-29T12:45:36.514Z,28.34
2023-06-29T12:48:05.151Z,27.91
2023-06-29T12:50:33.296Z,27.61
2023-06-29T12:53:01.309Z,28.07
2023-06-29T12:55:29.229Z,29.11
2023-06-29T12:57:56.942Z,29.11
2023-06-29T13:00:24.818Z,29.14
2023-06-29T13:02:54.274Z,27.10
2023-06-29T13:05:22.338Z,26.25
2023-06-29T13:07:50.084Z,26.22
2023-06-29T13:10:19.585Z,25.35
2023-06-29T13:12:47.401Z,25.82
2023-06-29T13:15:15.323Z,25.27
2023-06-29T13:17:44.209Z,25.74
2023-06-29T13:20:15.749Z,27.26
2023-06-29T13:22:43.821Z,27.99
2023-06-29T13:25:12.289Z,29.22
2023-06-29T13:27:41.875Z,30.37
2023-06-29T13:30:10.584Z,31.42
2023-06-29T13:32:41.072Z,31.22
2023-06-29T13:35:09.571Z,32.17
2023-06-29T13:37:37.315Z,30.76
2023-06-29T13:40:05.893Z,29.90
2023-06-29T13:42:33.620Z,29.98
2023-06-29T13:45:01.456Z,30.36
2023-06-29T13:47:29.375Z,31.15
2023-06-29T13:49:57.443Z,32.17
2023-06-29T13:52:25.172Z,32.85
2023-06-29T13:54:52.926Z,32.57
2023-06-29T13:57:26.819Z,33.64
2023-06-29T13:59:54.752Z,34.36
2023-06-29T14:02:25.825Z,33.94
2023-06-29T14:04:53.764Z,33.98
2023-06-29T14:07:26.019Z,33.72
2023-06-29T14:09:53.881Z,34.20
2023-06-29T14:12:21.838Z,34.02
2023-06-29T14:14:53.174Z,34.87
2023-06-29T14:17:24.689Z,35.37
2023-06-29T14:19:54.307Z,36.07
2023-06-29T14:22:22.132Z,35.01
2023-06-29T14:24:51.072Z,34.64
2023-06-29T14:27:20.153Z,34.95
2023-06-29T14:29:48.182Z,33.50
2023-06-29T14:32:16.024Z,33.86
2023-06-29T14:34:45.437Z,32.45
2023-06-29T14:37:13.150Z,31.35
2023-06-29T14:39:40.889Z,32.36
2023-06-29T14:42:09.447Z,33.04
2023-06-29T14:44:41.983Z,33.36
2023-06-29T14:47:10.698Z,33.36
2023-06-29T14:49:38.396Z,32.68
2023-06-29T14:52:07.229Z,33.07
2023-06-29T14:54:35.140Z,33.19
2023-06-29T14:57:03.101Z,33.00
2023-06-29T14:59:32.187Z,32.38
2023-06-29T15:02:00.012Z,32.39
2023-06-29T15:04:27.774Z,32.40
2023-06-29T15:06:55.596Z,32.07
2023-06-29T15:09:23.595Z,31.16
2023-06-29T15:11:51.518Z,31.33
2023-06-29T15:14:19.225Z,30.90
2023-06-29T15:16:47.234Z,29.74
2023-06-29T15:19:15.148Z,30.28
2023-06-29T15:21:42.959Z,29.28
2023-06-29T15:24:10.712Z,29.00
2023-06-29T15:26:38.839Z,27.92
2023-06-29T15:29:06.727Z,27.23
2023-06-29T15:31:34.732Z,27.17
2023-06-29T15:34:03.296Z,26.85
2023-06-29T15:36:32.313Z,26.58
2023-06-29T15:39:00.117Z,26.32
2023-06-29T15:41:28.012Z,26.74
2023-06-29T15:44:01.495Z,25.94
2023-06-29T15:46:30.152Z,25.40
2023-06-29T15:48:57.974Z,25.30
2023-06-29T15:51:25.890Z,25.80
2023-06-29T15:53:54.882Z,25.42
2023-06-29T15:56:22.796Z,25.75
2023-06-29T15:58:50.592Z,25.23
2023-06-29T16:01:18.309Z,24.70
2023-06-29T16:03:46.073Z,24.98
2023-06-29T16:06:13.965Z,25.03
2023-06-29T16:08:41.752Z,25.09
2023-06-29T16:11:09.569Z,24.53
2023-06-29T16:13:37.383Z,25.49
2023-06-29T16:16:05.970Z,25.96
2023-06-29T16:18:33.682Z,24.94
2023-06-29T16:21:01.640Z,24.81
2023-06-29T16:23:29.471Z,24.54
2023-06-29T16:25:57.670Z,24.65
2023-06-29T16:28:25.448Z,24.44
2023-06-29T16:30:53.293Z,24.02
2023-06-29T16:33:21.195Z,23.57
2023-06-29T16:35:49.020Z,23.30
2023-06-29T16:38:16.862Z,23.92
2023-06-29T16:40:45.753Z,24.10
2023-06-29T16:43:14.985Z,23.37
2023-06-29T16:45:43.160Z,23.19
2023-06-29T16:48:11.117Z,22.66
2023-06-29T16:50:38.954Z,22.78
2023-06-29T16:53:06.638Z,22.38
2023-06-29T16:55:34.479Z,23.06
2023-06-29T16:58:03.848Z,23.56
2023-06-29T17:00:31.645Z,23.91
2023-06-29T17:02:59.493Z,23.69
2023-06-29T17:05:28.168Z,23.51
2023-06-29T17:07:57.186Z,22.35
2023-06-29T17:10:25.491Z,23.49
2023-06-29T17:12:53.608Z,23.05
2023-06-29T17:15:21.390Z,23.21
2023-06-29T17:17:49.305Z,23.29
2023-06-29T17:20:17.340Z,24.49
2023-06-29T17:22:46.253Z,24.42
2023-06-29T17:25:14.184Z,24.03
2023-06-29T17:27:41.882Z,22.70
2023-06-29T17:30:10.628Z,22.69
2023-06-29T17:32:38.389Z,23.37
2023-06-29T17:35:06.977Z,24.13
2023-06-29T17:37:34.737Z,24.10
2023-06-29T17:40:02.513Z,23.16
2023-06-29T17:42:30.345Z,23.04
2023-06-29T17:44:58.125Z,22.66
2023-06-29T17:47:25.960Z,22.49
2023-06-29T17:49:53.853Z,22.76
2023-06-29T17:52:21.594Z,22.58
2023-06-29T17:54:49.689Z,22.87
2023-06-29T17:57:18.043Z,23.40
2023-06-29T17:59:45.908Z,24.91
2023-06-29T18:02:13.881Z,23.77
2023-06-29T18:04:42.031Z,23.97
2023-06-29T18:07:10.804Z,24.55
2023-06-29T18:09:38.664Z,24.89
2023-06-29T18:12:07.265Z,23.56
2023-06-29T18:14:35.106Z,22.86
2023-06-29T18:17:04.580Z,22.00
2023-06-29T18:19:32.375Z,22.09
2023-06-29T18:22:00.076Z,22.84
2023-06-29T18:24:27.964Z,23.82
2023-06-29T18:26:55.905Z,24.85
2023-06-29T18:29:23.785Z,23.88
2023-06-29T18:31:51.491Z,23.17
2023-06-29T18:34:19.286Z,22.59
2023-06-29T18:36:46.986Z,22.86
2023-06-29T18:39:16.013Z,22.29
2023-06-29T18:41:43.810Z,22.14
2023-06-29T18:44:13.845Z,22.54
2023-06-29T18:47:09.146Z,23.67
2023-06-29T18:49:50.493Z,25.38
2023-06-29T18:52:20.418Z,24.28
2023-06-29T18:54:48.647Z,24.83
2023-06-29T18:57:16.600Z,24.59
2023-06-29T18:59:44.737Z,22.77
2023-06-29T19:02:12.698Z,22.53
2023-06-29T19:04:40.988Z,23.29
2023-06-29T19:07:10.415Z,23.20
2023-06-29T19:09:38.592Z,23.59
2023-06-29T19:12:06.733Z,22.76
2023-06-29T19:14:34.687Z,22.35
2023-06-29T19:17:02.571Z,21.82
2023-06-29T19:19:30.336Z,21.50
2023-06-29T19:21:58.176Z,21.76
2023-06-29T19:24:26.340Z,22.26
2023-06-29T19:26:54.220Z,22.85
2023-06-29T19:29:22.052Z,23.78
2023-06-29T19:31:49.797Z,24.55
2023-06-29T19:34:17.580Z,24.87
2023-06-29T19:36:45.379Z,25.06
2023-06-29T19:39:13.149Z,25.36
2023-06-29T19:41:40.910Z,25.53
2023-06-29T19:44:08.924Z,25.45
2023-06-29T19:46:36.740Z,25.45
2023-06-29T19:49:04.515Z,25.62
2023-06-29T19:51:37.177Z,25.65
2023-06-29T19:54:04.865Z,25.62
2023-06-29T19:56:34.176Z,25.50
2023-06-29T19:59:03.020Z,25.61
2023-06-29T20:01:30.964Z,25.46
2023-06-29T20:03:59.174Z,25.45
2023-06-29T20:06:27.146Z,25.50
2023-06-29T20:08:55.788Z,25.57
2023-06-29T20:11:24.053Z,25.48
2023-06-29T20:13:51.972Z,25.52
2023-06-29T20:16:20.744Z,25.46
2023-06-29T20:18:49.744Z,25.48
2023-06-29T20:21:18.806Z,25.49
2023-06-29T20:23:51.844Z,25.49
2023-06-29T20:26:20.412Z,25.45
2023-06-29T20:28:48.146Z,25.33
2023-06-29T20:31:15.976Z,25.39
2023-06-29T20:33:44.038Z,25.30
2023-06-29T20:36:14.031Z,25.25
2023-06-29T20:38:43.354Z,25.30
2023-06-29T20:41:12.579Z,25.22
2023-06-29T20:43:47.306Z,25.19
2023-06-29T20:46:19.444Z,24.62
2023-06-29T20:48:47.606Z,24.91
2023-06-29T20:51:18.290Z,24.87
2023-06-29T20:53:46.418Z,25.10
2023-06-29T20:56:14.275Z,25.12
2023-06-29T20:58:42.094Z,25.11
2023-06-29T21:01:09.956Z,25.07
2023-06-29T21:03:39.307Z,25.04
2023-06-29T21:06:07.222Z,25.08
2023-06-29T21:08:35.365Z,25.02
2023-06-29T21:11:03.873Z,25.02
2023-06-29T21:13:31.835Z,25.03
2023-06-29T21:15:59.809Z,24.98
2023-06-29T21:18:28.099Z,25.02
2023-06-29T21:20:56.495Z,25.03
2023-06-29T21:23:24.364Z,25.06
2023-06-29T21:25:52.388Z,25.01
2023-06-29T21:28:21.436Z,25.02
2023-06-29T21:30:49.520Z,24.95
2023-06-29T21:33:17.702Z,24.87
2023-06-29T21:35:46.014Z,24.94
2023-06-29T21:38:14.221Z,24.92
2023-06-29T21:40:42.071Z,24.90
2023-06-29T21:43:09.914Z,24.92
2023-06-29T21:45:37.996Z,24.91
2023-06-29T21:48:07.822Z,24.91
2023-06-29T21:50:35.919Z,24.85
2023-06-29T21:53:03.738Z,24.81
2023-06-29T21:55:31.893Z,24.82
2023-06-29T21:57:59.634Z,24.84
2023-06-29T22:00:27.467Z,24.75
2023-06-29T22:02:56.735Z,24.85
2023-06-29T22:05:25.274Z,24.85
2023-06-29T22:07:53.226Z,24.84
2023-06-29T22:10:21.193Z,24.79
2023-06-29T22:12:49.304Z,24.65
2023-06-29T22:15:17.367Z,24.72
2023-06-29T22:17:49.209Z,24.73
2023-06-29T22:20:24.079Z,24.78
2023-06-29T22:22:51.994Z,24.59
2023-06-29T22:25:19.714Z,24.65
2023-06-29T22:27:48.451Z,24.64
2023-06-29T22:30:16.215Z,24.72
2023-06-29T22:32:51.835Z,23.46
2023-06-29T22:35:20.713Z,22.29
2023-06-29T22:37:48.565Z,21.81
2023-06-29T22:40:16.517Z,21.23
2023-06-29T22:42:44.288Z,20.68
2023-06-29T22:45:13.083Z,20.11
2023-06-29T22:47:41.134Z,20.01
2023-06-29T22:50:09.482Z,19.51
2023-06-29T22:52:37.255Z,19.46
2023-06-29T22:55:05.456Z,19.65
2023-06-29T22:57:33.193Z,20.41
2023-06-29T23:00:00.963Z,19.95
2023-06-29T23:02:28.805Z,19.97
2023-06-29T23:04:56.817Z,19.71
2023-06-29T23:07:28.292Z,19.46
2023-06-29T23:09:56.371Z,19.54
2023-06-29T23:12:27.254Z,19.73
2023-06-29T23:14:56.044Z,18.87
2023-06-29T23:17:24.490Z,18.75
2023-06-29T23:19:52.800Z,18.74
2023-06-29T23:22:22.111Z,18.26
2023-06-29T23:24:53.921Z,18.11
2023-06-29T23:27:22.004Z,17.98
2023-06-29T23:29:50.905Z,17.38
2023-06-29T23:32:18.754Z,17.15
2023-06-29T23:34:46.608Z,16.81
2023-06-29T23:37:14.330Z,16.72
2023-06-29T23:39:42.337Z,16.87
2023-06-29T23:42:10.195Z,17.07
2023-06-29T23:44:41.778Z,17.01
2023-06-29T23:47:11.158Z,17.39
2023-06-29T23:49:39.790Z,18.17
2023-06-29T23:52:10.848Z,18.07
2023-06-29T23:54:39.048Z,18.78
2023-06-29T23:57:07.553Z,18.34
2023-06-29T23:59:35.489Z,18.71
